Time;durP1;ratioP1;P1;durP2;ratioP2;P2;SDS_P1;SDS_P2;PMS_P1;PMS_P2;Temp;Humidity;BMP_temperature;BMP_pressure;BME280_temperature;BME280_humidity;BME280_pressure;Samples;Min_cycle;Max_cycle;Signal;HPM_P1;HPM_P2
2023/03/16 00:01:57;;;;;;;5.43;3.17;;;3.80;99.90;;;;;;4851003;29;20045;-82
2023/03/16 00:04:26;;;;;;;6.20;3.50;;;4.40;99.90;;;;;;4856124;29;20060;-84
2023/03/16 00:06:52;;;;;;;6.63;3.22;;;2.30;99.90;;;;;;4852236;29;20053;-84
2023/03/16 00:09:17;;;;;;;6.93;3.00;;;3.90;99.90;;;;;;4839540;29;20057;-84
2023/03/16 00:11:43;;;;;;;5.63;3.10;;;4.20;99.90;;;;;;4838365;29;20059;-84
2023/03/16 00:14:09;;;;;;;4.75;2.85;;;3.90;99.90;;;;;;4842926;29;20501;-84
2023/03/16 00:16:35;;;;;;;8.15;3.13;;;4.00;99.90;;;;;;4841081;29;20053;-85
2023/03/16 00:19:02;;;;;;;6.45;2.88;;;4.70;99.90;;;;;;4857196;29;20573;-84
2023/03/16 00:21:31;;;;;;;6.53;3.15;;;4.10;99.90;;;;;;4831959;29;20532;-84
2023/03/16 00:24:02;;;;;;;5.22;2.97;;;4.10;99.90;;;;;;4842074;29;20048;-84
2023/03/16 00:26:28;;;;;;;8.35;3.28;;;4.20;99.90;;;;;;4835052;29;20576;-83
2023/03/16 00:28:53;;;;;;;7.13;3.45;;;4.10;99.90;;;;;;4846395;29;20540;-84
2023/03/16 00:31:19;;;;;;;6.43;2.90;;;4.10;99.90;;;;;;4837978;29;20057;-84
2023/03/16 00:33:45;;;;;;;7.45;3.30;;;4.10;99.90;;;;;;4850930;29;20045;-84
2023/03/16 00:36:11;;;;;;;5.97;3.20;;;4.20;99.90;;;;;;4840361;29;20920;-84
2023/03/16 00:38:43;;;;;;;6.00;3.70;;;4.20;99.90;;;;;;4861044;29;20051;-84
2023/03/16 00:41:13;;;;;;;5.45;3.25;;;4.50;99.90;;;;;;4846252;29;20068;-84
2023/03/16 00:43:40;;;;;;;6.47;3.70;;;4.20;99.90;;;;;;4861147;29;20178;-84
2023/03/16 00:46:12;;;;;;;5.65;3.17;;;4.20;99.90;;;;;;4853831;29;20050;-83
2023/03/16 00:48:41;;;;;;;5.45;3.65;;;4.10;99.90;;;;;;4861452;29;20053;-83
2023/03/16 00:51:11;;;;;;;5.22;3.17;;;4.20;99.90;;;;;;4847578;29;20085;-84
2023/03/16 00:53:38;;;;;;;6.70;3.70;;;4.10;99.90;;;;;;4850773;29;20052;-84
2023/03/16 00:56:05;;;;;;;6.60;3.45;;;4.10;99.90;;;;;;4853800;29;20056;-84
2023/03/16 00:58:35;;;;;;;5.28;3.00;;;4.30;99.90;;;;;;4857591;29;20121;-84
2023/03/16 01:01:02;;;;;;;7.22;3.78;;;4.10;99.90;;;;;;4838497;29;20140;-83
2023/03/16 01:03:28;;;;;;;4.93;3.20;;;4.00;99.90;;;;;;4854047;29;20057;-84
2023/03/16 01:05:58;;;;;;;6.07;2.75;;;4.00;99.90;;;;;;4854160;29;20057;-84
2023/03/16 01:08:28;;;;;;;4.75;2.72;;;4.10;99.90;;;;;;4852629;29;20136;-85
2023/03/16 01:10:54;;;;;;;6.07;3.13;;;3.90;99.90;;;;;;4854348;29;20132;-84
2023/03/16 01:13:22;;;;;;;6.80;3.53;;;4.20;99.90;;;;;;4835626;29;20125;-85
2023/03/16 01:15:52;;;;;;;4.90;3.20;;;3.90;99.90;;;;;;4846696;29;20057;-84
2023/03/16 01:18:19;;;;;;;6.93;3.67;;;;;;;;;;4834920;29;20459;-83
2023/03/16 01:20:49;;;;;;;7.75;3.53;;;3.90;99.90;;;;;;4847917;29;20084;-84
2023/03/16 01:23:16;;;;;;;6.65;3.10;;;3.90;99.90;;;;;;4835974;29;20057;-83
2023/03/16 01:25:42;;;;;;;4.82;3.05;;;3.90;99.90;;;;;;4835886;29;20522;-85
2023/03/16 01:28:09;;;;;;;7.68;3.40;;;3.90;99.90;;;;;;4835545;29;20148;-84
2023/03/16 01:30:35;;;;;;;4.80;2.97;;;3.90;99.90;;;;;;4853910;29;20149;-85
2023/03/16 01:33:01;;;;;;;8.00;3.03;;;3.90;99.90;;;;;;4845334;29;20056;-85
2023/03/16 01:35:27;;;;;;;6.20;2.80;;;4.80;99.90;;;;;;4845295;29;20080;-85
2023/03/16 01:37:53;;;;;;;5.10;3.15;;;3.90;99.90;;;;;;4850918;29;20509;-84
2023/03/16 01:40:19;;;;;;;6.82;2.80;;;3.90;99.90;;;;;;4846868;29;20059;-84
2023/03/16 01:42:58;;;;;;;5.80;3.63;;;3.90;99.90;;;;;;4835514;29;20072;-85
2023/03/16 01:46:01;;;;;;;5.93;3.38;;;3.90;99.90;;;;;;4847056;29;20053;-85
2023/03/16 01:48:28;;;;;;;7.05;3.30;;;3.90;99.90;;;;;;4848647;29;20053;-84
2023/03/16 01:50:55;;;;;;;6.57;3.10;;;3.90;99.90;;;;;;4851453;29;20057;-84
2023/03/16 01:53:23;;;;;;;6.13;3.08;;;3.90;99.90;;;;;;4837671;29;20105;-85
2023/03/16 01:55:50;;;;;;;4.25;2.80;;;3.90;99.90;;;;;;4844297;29;20053;-84
2023/03/16 01:58:16;;;;;;;7.32;2.92;;;3.90;99.90;;;;;;4829060;29;20056;-84
2023/03/16 02:00:44;;;;;;;8.07;3.03;;;3.90;99.90;;;;;;4858854;29;20084;-84
2023/03/16 02:03:17;;;;;;;7.43;3.17;;;3.90;99.90;;;;;;4836296;29;20064;-84
2023/03/16 02:06:00;;;;;;;4.28;3.03;;;4.00;99.90;;;;;;4847986;29;20092;-83
2023/03/16 02:08:27;;;;;;;5.97;3.22;;;3.90;99.90;;;;;;4849945;29;20050;-84
2023/03/16 02:10:55;;;;;;;5.72;3.22;;;3.90;99.90;;;;;;4838076;29;20075;-85
2023/03/16 02:13:28;;;;;;;5.07;2.92;;;3.90;99.90;;;;;;4852732;29;20044;-84
2023/03/16 02:15:54;;;;;;;6.35;3.13;;;3.90;99.90;;;;;;4820875;29;20060;-84
2023/03/16 02:18:21;;;;;;;8.05;2.90;;;4.00;99.90;;;;;;4844563;29;20049;-85
2023/03/16 02:21:25;;;;;;;7.05;3.35;;;4.00;99.90;;;;;;4843918;29;20050;-83
2023/03/16 02:23:52;;;;;;;5.30;2.85;;;3.90;99.90;;;;;;4850578;29;20041;-83
2023/03/16 02:27:03;;;;;;;4.78;3.00;;;4.00;99.90;;;;;;4848858;29;20045;-83
2023/03/16 02:29:43;;;;;;;4.45;3.00;;;4.00;99.90;;;;;;4843072;29;22316;-84
2023/03/16 02:32:10;;;;;;;6.70;3.15;;;4.10;99.90;;;;;;4841950;29;20093;-84
2023/03/16 02:34:37;;;;;;;5.78;3.45;;;4.00;99.90;;;;;;4856944;29;20100;-84
2023/03/16 02:37:03;;;;;;;5.50;2.83;;;4.00;99.90;;;;;;4850228;29;20048;-83
2023/03/16 02:39:29;;;;;;;4.03;2.60;;;4.00;99.90;;;;;;4834577;29;20139;-84
2023/03/16 02:41:56;;;;;;;4.68;3.08;;;3.20;99.90;;;;;;4845985;29;20545;-84
2023/03/16 02:44:32;;;;;;;5.65;3.60;;;4.10;99.90;;;;;;4828884;29;20167;-84
2023/03/16 02:47:04;;;;;;;6.38;3.17;;;4.10;99.90;;;;;;4852423;29;20105;-84
2023/03/16 02:49:35;;;;;;;6.47;3.35;;;4.00;99.90;;;;;;4847356;29;21796;-84
2023/03/16 02:52:03;;;;;;;5.72;3.15;;;4.00;99.90;;;;;;4851816;29;20052;-83
2023/03/16 02:54:29;;;;;;;6.80;3.42;;;4.10;99.90;;;;;;4832169;29;20041;-84
2023/03/16 02:56:55;;;;;;;5.78;3.20;;;4.00;99.90;;;;;;4848606;29;20050;-84
2023/03/16 02:59:21;;;;;;;4.60;3.38;;;4.20;99.90;;;;;;4829390;29;20057;-84
2023/03/16 03:01:46;;;;;;;5.63;3.60;;;4.00;99.90;;;;;;4849218;29;20127;-84
2023/03/16 03:04:13;;;;;;;5.72;3.60;;;4.00;99.90;;;;;;4850197;29;20084;-83
2023/03/16 03:06:40;;;;;;;5.47;3.60;;;4.00;99.90;;;;;;4857788;29;20264;-84
2023/03/16 03:09:07;;;;;;;8.30;3.42;;;4.40;99.90;;;;;;4842767;29;20534;-83
2023/03/16 03:11:33;;;;;;;6.57;3.70;;;4.10;99.90;;;;;;4851650;29;20056;-84
2023/03/16 03:13:58;;;;;;;6.05;3.72;;;4.90;99.90;;;;;;4835329;29;20510;-84
2023/03/16 03:16:24;;;;;;;4.95;3.28;;;4.10;99.90;;;;;;4846127;29;20243;-85
2023/03/16 03:18:53;;;;;;;6.40;3.70;;;4.10;99.90;;;;;;4835895;29;20061;-84
2023/03/16 03:21:20;;;;;;;7.57;3.28;;;4.40;99.90;;;;;;4845401;29;20741;-83
2023/03/16 03:23:46;;;;;;;4.80;3.38;;;4.20;99.90;;;;;;4850810;29;20061;-82
2023/03/16 03:26:16;;;;;;;5.07;3.65;;;4.20;99.90;;;;;;4835355;29;20081;-84
2023/03/16 03:28:43;;;;;;;4.93;3.63;;;4.20;99.90;;;;;;4843556;29;20445;-84
2023/03/16 03:31:14;;;;;;;5.38;3.72;;;4.20;99.90;;;;;;4848843;29;20056;-84
2023/03/16 03:33:40;;;;;;;6.10;3.65;;;3.10;99.90;;;;;;4848124;29;20140;-84
2023/03/16 03:36:06;;;;;;;9.65;3.85;;;4.30;99.90;;;;;;4836837;29;20136;-84
2023/03/16 03:38:32;;;;;;;6.68;4.00;;;4.30;99.90;;;;;;4848647;29;20379;-84
2023/03/16 03:40:58;;;;;;;8.27;4.28;;;4.50;99.90;;;;;;4850884;29;20112;-84
2023/03/16 03:43:25;;;;;;;8.57;4.25;;;4.20;99.90;;;;;;4837360;29;20435;-84
2023/03/16 03:45:59;;;;;;;9.20;4.20;;;4.50;99.90;;;;;;4861878;29;20281;-84
2023/03/16 03:48:25;;;;;;;5.82;4.18;;;4.30;99.90;;;;;;4869837;29;20049;-84
2023/03/16 03:50:51;;;;;;;7.10;4.63;;;4.40;99.90;;;;;;4835680;29;20398;-85
2023/03/16 03:53:18;;;;;;;6.55;4.40;;;4.40;99.90;;;;;;4854460;29;20049;-85
2023/03/16 03:55:44;;;;;;;5.93;4.55;;;4.40;99.90;;;;;;4851449;29;20053;-84
2023/03/16 03:58:11;;;;;;;7.00;4.05;;;4.40;99.90;;;;;;4850861;29;20488;-84
2023/03/16 04:00:37;;;;;;;7.28;4.63;;;4.70;99.90;;;;;;4857238;29;20053;-84
2023/03/16 04:03:04;;;;;;;7.40;4.50;;;4.40;99.90;;;;;;4848432;29;20053;-84
2023/03/16 04:05:31;;;;;;;7.93;3.90;;;4.50;99.90;;;;;;4861751;29;20057;-84
2023/03/16 04:07:56;;;;;;;8.20;5.10;;;4.40;99.90;;;;;;4853431;29;20093;-84
2023/03/16 04:10:28;;;;;;;7.28;4.50;;;4.40;99.90;;;;;;4854269;29;20241;-84
2023/03/16 04:12:55;;;;;;;6.88;4.80;;;2.70;99.90;;;;;;4861116;29;20048;-84
2023/03/16 04:15:21;;;;;;;7.70;4.28;;;4.50;99.90;;;;;;4851983;29;20089;-84
2023/03/16 04:17:48;;;;;;;6.93;4.68;;;4.40;99.90;;;;;;4837309;29;20065;-84
2023/03/16 04:20:17;;;;;;;8.55;4.50;;;4.40;99.90;;;;;;4836225;29;20049;-83
2023/03/16 04:22:44;;;;;;;7.97;4.43;;;4.40;99.90;;;;;;4845334;29;20466;-84
2023/03/16 04:25:11;;;;;;;7.50;4.50;;;4.40;99.90;;;;;;4854294;29;20064;-84
2023/03/16 04:27:37;;;;;;;6.90;4.45;;;4.40;99.90;;;;;;4837124;29;20079;-83
2023/03/16 04:30:11;;;;;;;8.18;5.20;;;4.40;99.90;;;;;;4844170;29;20474;-83
2023/03/16 04:32:38;;;;;;;6.25;4.13;;;4.40;99.90;;;;;;4844401;29;20049;-85
2023/03/16 04:35:04;;;;;;;10.90;4.57;;;4.50;99.90;;;;;;4848566;29;20455;-83
2023/03/16 04:37:30;;;;;;;6.57;4.93;;;4.50;99.90;;;;;;4868451;29;20049;-83
2023/03/16 04:39:56;;;;;;;6.53;4.32;;;4.40;99.90;;;;;;4852668;29;20156;-84
2023/03/16 04:42:22;;;;;;;7.75;4.60;;;4.40;99.90;;;;;;4849954;29;20049;-84
2023/03/16 04:44:49;;;;;;;6.90;4.88;;;4.60;99.90;;;;;;4859009;29;20049;-84
2023/03/16 04:47:16;;;;;;;7.65;4.90;;;4.60;99.90;;;;;;4849695;29;20604;-84
2023/03/16 04:49:42;;;;;;;7.88;4.78;;;4.50;99.90;;;;;;4846059;29;20053;-84
2023/03/16 04:52:09;;;;;;;9.73;5.35;;;3.80;99.90;;;;;;4859090;29;20072;-85
2023/03/16 04:54:35;;;;;;;8.05;5.05;;;;;;;;;;4863233;29;20405;-83
2023/03/16 04:57:02;;;;;;;7.55;4.88;;;4.50;99.90;;;;;;4846796;29;20777;-83
2023/03/16 04:59:28;;;;;;;9.20;5.60;;;4.50;99.90;;;;;;4820730;29;20075;-83
2023/03/16 05:01:54;;;;;;;8.32;5.50;;;4.60;99.90;;;;;;4834296;29;20056;-84
2023/03/16 05:04:23;;;;;;;8.80;4.90;;;4.60;99.90;;;;;;4836341;29;20045;-83
2023/03/16 05:06:50;;;;;;;11.70;5.20;;;4.50;99.90;;;;;;4859811;29;20145;-84
2023/03/16 05:09:16;;;;;;;6.47;4.53;;;4.60;99.90;;;;;;4846750;29;20053;-83
2023/03/16 05:11:42;;;;;;;8.23;5.03;;;;;;;;;;4834788;29;20160;-83
2023/03/16 05:14:11;;;;;;;8.68;5.28;;;4.60;99.90;;;;;;4847587;29;20051;-83
2023/03/16 05:16:36;;;;;;;8.02;5.20;;;4.60;99.90;;;;;;4844786;29;20061;-83
2023/03/16 05:19:04;;;;;;;7.32;4.43;;;4.60;99.90;;;;;;4830601;29;20077;-83
2023/03/16 05:21:30;;;;;;;9.00;4.93;;;4.60;99.90;;;;;;4858236;29;20072;-83
2023/03/16 05:23:57;;;;;;;9.52;5.25;;;4.60;99.90;;;;;;4831743;29;20546;-83
2023/03/16 05:26:26;;;;;;;8.70;5.65;;;4.60;99.90;;;;;;4831858;29;20053;-83
2023/03/16 05:28:51;;;;;;;5.97;4.75;;;4.60;99.90;;;;;;4848520;29;20136;-83
2023/03/16 05:31:18;;;;;;;8.23;5.05;;;4.70;99.90;;;;;;4858848;29;20145;-83
2023/03/16 05:33:44;;;;;;;8.40;4.97;;;4.60;99.90;;;;;;4848439;29;20045;-82
2023/03/16 05:36:11;;;;;;;6.40;4.65;;;4.70;99.90;;;;;;4850434;29;20057;-84
2023/03/16 05:38:38;;;;;;;7.63;4.72;;;4.70;99.90;;;;;;4846342;29;20056;-83
2023/03/16 05:41:04;;;;;;;8.23;5.40;;;4.90;99.90;;;;;;4837942;29;20061;-83
2023/03/16 05:43:30;;;;;;;7.70;4.80;;;4.60;99.90;;;;;;4832371;29;20155;-82
2023/03/16 05:45:57;;;;;;;8.80;5.20;;;4.70;99.90;;;;;;4848853;29;20121;-84
2023/03/16 05:48:25;;;;;;;10.52;5.72;;;4.70;99.90;;;;;;4851705;29;20057;-85
2023/03/16 05:50:53;;;;;;;8.00;4.97;;;4.70;99.90;;;;;;4837463;29;20125;-84
2023/03/16 05:53:19;;;;;;;7.05;5.15;;;4.70;99.90;;;;;;4851845;29;20052;-82
2023/03/16 05:55:54;;;;;;;8.45;5.57;;;4.70;99.90;;;;;;4858899;29;20735;-84
2023/03/16 05:58:20;;;;;;;8.50;5.30;;;4.70;99.90;;;;;;4848825;29;20068;-83
2023/03/16 06:00:46;;;;;;;9.07;6.20;;;4.80;99.90;;;;;;4851740;29;20049;-84
2023/03/16 06:03:12;;;;;;;7.97;5.10;;;;;;;;;;4851189;29;20057;-84
2023/03/16 06:05:38;;;;;;;10.57;5.15;;;4.80;99.90;;;;;;4845253;29;20048;-83
2023/03/16 06:08:04;;;;;;;9.75;5.70;;;3.60;99.90;;;;;;4848371;29;20880;-83
2023/03/16 06:10:30;;;;;;;7.47;5.72;;;4.80;99.90;;;;;;4838002;29;20140;-84
2023/03/16 06:12:56;;;;;;;9.02;5.18;;;4.70;99.90;;;;;;4835262;29;20055;-84
2023/03/16 06:15:25;;;;;;;8.43;6.05;;;4.80;99.90;;;;;;4836426;29;20443;-84
2023/03/16 06:17:51;;;;;;;7.85;5.38;;;4.80;99.90;;;;;;4820156;29;20510;-83
2023/03/16 06:20:17;;;;;;;8.77;5.68;;;4.80;99.90;;;;;;4833056;29;20152;-84
2023/03/16 06:22:43;;;;;;;9.00;5.50;;;4.90;99.90;;;;;;4837281;29;20501;-84
2023/03/16 06:25:11;;;;;;;9.32;5.43;;;4.80;99.90;;;;;;4861460;29;20060;-83
2023/03/16 06:27:37;;;;;;;10.32;5.90;;;4.80;99.90;;;;;;4848544;29;20049;-84
2023/03/16 06:30:05;;;;;;;8.63;5.05;;;4.90;99.90;;;;;;4836986;29;20449;-84
2023/03/16 06:32:31;;;;;;;11.10;5.53;;;4.80;99.90;;;;;;4855641;29;20277;-84
2023/03/16 06:35:00;;;;;;;8.63;5.07;;;4.90;99.90;;;;;;4854804;29;20128;-85
2023/03/16 06:37:27;;;;;;;9.65;4.93;;;4.90;99.90;;;;;;4852716;29;20056;-85
2023/03/16 06:39:53;;;;;;;9.15;5.32;;;4.90;99.90;;;;;;4872337;29;20045;-85
2023/03/16 06:42:19;;;;;;;8.07;5.63;;;4.90;99.90;;;;;;4840214;29;20049;-84
2023/03/16 06:44:44;;;;;;;8.02;4.65;;;4.90;99.90;;;;;;4865380;29;20056;-84
2023/03/16 06:47:10;;;;;;;9.10;4.95;;;4.90;99.90;;;;;;4834842;29;20049;-84
2023/03/16 06:49:36;;;;;;;7.50;4.60;;;4.90;99.90;;;;;;4850003;29;20471;-84
2023/03/16 06:52:02;;;;;;;7.97;4.68;;;5.00;99.90;;;;;;4848694;29;20193;-83
2023/03/16 06:54:31;;;;;;;8.27;4.90;;;4.90;99.90;;;;;;4852114;29;20075;-85
2023/03/16 06:56:57;;;;;;;8.05;4.65;;;4.80;99.90;;;;;;4865148;29;20394;-84
2023/03/16 06:59:23;;;;;;;8.50;4.65;;;4.80;99.90;;;;;;4831949;29;20084;-84
2023/03/16 07:01:49;;;;;;;8.75;4.90;;;4.90;99.90;;;;;;4853495;29;20092;-87
2023/03/16 07:04:16;;;;;;;8.40;4.68;;;;;;;;;;4849720;29;20098;-87
2023/03/16 07:06:42;;;;;;;8.40;4.72;;;;;;;;;;4851682;29;20056;-87
2023/03/16 07:09:08;;;;;;;7.68;4.63;;;4.90;99.90;;;;;;4842376;29;20044;-87
2023/03/16 07:11:34;;;;;;;8.00;4.30;;;4.90;99.90;;;;;;4835518;29;20060;-84
2023/03/16 07:14:00;;;;;;;5.80;4.50;;;4.90;99.90;;;;;;4841162;29;20098;-85
2023/03/16 07:16:29;;;;;;;7.28;3.97;;;4.90;99.90;;;;;;4868772;29;20493;-88
2023/03/16 07:19:01;;;;;;;7.80;5.18;;;6.40;99.90;;;;;;4859992;29;20048;-87
2023/03/16 07:21:26;;;;;;;6.88;4.57;;;4.90;99.90;;;;;;4825212;29;20494;-86
2023/03/16 07:23:54;;;;;;;8.85;4.60;;;4.90;99.90;;;;;;4856183;29;20076;-85
2023/03/16 07:26:20;;;;;;;7.03;3.90;;;5.00;99.90;;;;;;4851370;29;20141;-85
2023/03/16 07:28:46;;;;;;;6.40;3.95;;;5.30;99.90;;;;;;4852455;29;20554;-83
2023/03/16 07:31:13;;;;;;;11.48;4.20;;;5.00;99.90;;;;;;4837402;29;20052;-82
2023/03/16 07:33:39;;;;;;;10.15;4.35;;;5.00;99.90;;;;;;4833228;29;20179;-82
2023/03/16 07:36:05;;;;;;;7.00;3.63;;;5.30;99.90;;;;;;4851563;29;20548;-82
2023/03/16 07:38:32;;;;;;;8.98;4.10;;;5.10;99.90;;;;;;4830673;29;20056;-82
2023/03/16 07:40:59;;;;;;;6.80;4.68;;;5.20;99.90;;;;;;4834663;29;20054;-82
2023/03/16 07:43:25;;;;;;;6.00;4.07;;;5.10;99.90;;;;;;4864792;29;20060;-83
2023/03/16 07:45:51;;;;;;;7.70;4.13;;;5.10;99.90;;;;;;4862112;29;20045;-83
2023/03/16 07:48:17;;;;;;;7.07;4.10;;;5.10;99.90;;;;;;4850426;29;20181;-83
2023/03/16 07:50:45;;;;;;;5.93;4.00;;;5.10;99.90;;;;;;4837723;29;20128;-83
2023/03/16 07:53:13;;;;;;;8.13;4.32;;;5.20;99.90;;;;;;4863194;29;20071;-82
2023/03/16 07:55:40;;;;;;;6.70;4.10;;;;;;;;;;4853026;29;20044;-81
2023/03/16 07:58:06;;;;;;;8.35;4.50;;;5.20;99.90;;;;;;4863078;29;20493;-84
2023/03/16 08:00:32;;;;;;;5.05;3.60;;;5.20;99.90;;;;;;4864984;29;20049;-82
2023/03/16 08:02:58;;;;;;;6.75;4.30;;;5.30;99.90;;;;;;4868592;29;20064;-83
2023/03/16 08:05:25;;;;;;;6.28;4.00;;;5.20;99.90;;;;;;4860843;29;20051;-82
2023/03/16 08:07:50;;;;;;;7.40;4.03;;;5.10;99.90;;;;;;4838986;29;20104;-83
2023/03/16 08:10:17;;;;;;;7.03;4.25;;;5.10;99.90;;;;;;4851290;29;20406;-83
2023/03/16 08:12:43;;;;;;;7.80;3.45;;;5.40;99.90;;;;;;4842183;29;20052;-84
2023/03/16 08:15:10;;;;;;;7.47;4.05;;;5.20;99.90;;;;;;4858333;29;20095;-84
2023/03/16 08:17:36;;;;;;;6.65;3.70;;;5.20;99.90;;;;;;4863783;29;20550;-84
2023/03/16 08:20:08;;;;;;;7.95;4.18;;;5.20;99.90;;;;;;4874798;29;20053;-82
2023/03/16 08:22:35;;;;;;;6.55;3.72;;;5.20;99.90;;;;;;4865023;29;20057;-81
2023/03/16 08:25:02;;;;;;;6.07;3.47;;;5.30;99.90;;;;;;4859112;29;20491;-82
2023/03/16 08:27:28;;;;;;;8.13;3.65;;;5.30;99.90;;;;;;4848861;29;20049;-82
2023/03/16 08:29:54;;;;;;;7.63;3.47;;;5.30;99.90;;;;;;4854518;29;20056;-82
2023/03/16 08:32:20;;;;;;;8.70;3.50;;;5.30;99.90;;;;;;4834256;29;20103;-85
2023/03/16 08:34:46;;;;;;;8.70;3.67;;;5.30;99.90;;;;;;4850169;29;20057;-82
2023/03/16 08:37:13;;;;;;;6.43;3.28;;;5.30;99.90;;;;;;4862783;29;20060;-84
2023/03/16 08:39:45;;;;;;;4.95;3.40;;;5.30;99.90;;;;;;4839940;29;20048;-84
2023/03/16 08:42:14;;;;;;;9.18;3.80;;;5.30;99.90;;;;;;4852035;29;20064;-84
2023/03/16 08:44:40;;;;;;;7.50;3.75;;;5.40;99.90;;;;;;4822179;29;20782;-84
2023/03/16 08:47:06;;;;;;;4.43;3.13;;;5.40;99.90;;;;;;4846652;29;20064;-84
2023/03/16 08:49:32;;;;;;;7.90;3.83;;;5.40;99.90;;;;;;4847707;29;20049;-84
2023/03/16 08:51:59;;;;;;;4.85;3.28;;;5.50;99.90;;;;;;4852164;29;20052;-84
2023/03/16 08:54:25;;;;;;;6.55;3.30;;;5.50;99.90;;;;;;4851401;29;20046;-84
2023/03/16 08:56:51;;;;;;;5.28;3.22;;;5.50;99.90;;;;;;4849831;29;20061;-84
2023/03/16 08:59:17;;;;;;;5.38;3.28;;;5.60;99.90;;;;;;4852224;29;20578;-84
2023/03/16 09:01:43;;;;;;;6.30;3.67;;;5.50;99.90;;;;;;4858942;29;20578;-84
2023/03/16 09:04:09;;;;;;;7.10;3.30;;;5.60;99.90;;;;;;4847820;29;20057;-84
2023/03/16 09:06:35;;;;;;;5.57;3.20;;;5.60;99.90;;;;;;4849024;29;20495;-84
2023/03/16 09:09:00;;;;;;;7.07;3.20;;;5.70;99.90;;;;;;4849593;29;20064;-84
2023/03/16 09:11:29;;;;;;;6.35;3.47;;;5.60;99.90;;;;;;4849053;29;20092;-84
2023/03/16 09:13:55;;;;;;;7.00;3.25;;;5.70;99.90;;;;;;4853730;29;20038;-84
2023/03/16 09:16:24;;;;;;;6.50;3.08;;;5.60;99.90;;;;;;4837721;29;20100;-83
2023/03/16 09:19:10;;;;;;;5.05;3.03;;;5.60;99.90;;;;;;4841785;29;20068;-88
2023/03/16 09:21:36;;;;;;;6.00;3.40;;;5.40;99.90;;;;;;4840814;29;20051;-83
2023/03/16 09:24:02;;;;;;;4.88;2.85;;;5.70;99.90;;;;;;4850703;29;20049;-83
2023/03/16 09:26:28;;;;;;;5.45;3.47;;;5.20;99.90;;;;;;4855186;29;20053;-83
2023/03/16 09:28:54;;;;;;;6.43;3.45;;;5.70;99.90;;;;;;4854270;29;20057;-83
2023/03/16 09:31:21;;;;;;;6.43;3.42;;;5.70;99.90;;;;;;4852428;29;20560;-82
2023/03/16 09:33:47;;;;;;;4.80;3.10;;;5.70;99.90;;;;;;4864411;29;20100;-83
2023/03/16 09:36:14;;;;;;;5.68;3.35;;;5.80;99.90;;;;;;4863223;29;20052;-83
2023/03/16 09:38:42;;;;;;;7.65;4.05;;;5.70;99.90;;;;;;4862088;29;20135;-82
2023/03/16 09:41:31;;;;;;;7.70;3.13;;;5.70;99.90;;;;;;4844811;29;20057;-83
2023/03/16 09:44:16;;;;;;;5.57;3.13;;;5.70;99.90;;;;;;4821663;29;20053;-83
2023/03/16 09:46:48;;;;;;;6.03;3.25;;;5.80;99.90;;;;;;4870775;29;20037;-82
2023/03/16 09:49:20;;;;;;;6.85;3.42;;;5.70;99.90;;;;;;4866024;29;20167;-82
2023/03/16 09:52:02;;;;;;;5.70;3.13;;;5.80;99.90;;;;;;4878310;29;21027;-80
2023/03/16 09:54:38;;;;;;;6.43;3.75;;;6.00;99.90;;;;;;4871196;29;20148;-82
2023/03/16 09:57:15;;;;;;;5.57;3.35;;;5.90;99.90;;;;;;4880939;29;20044;-84
2023/03/16 09:59:41;;;;;;;6.80;3.45;;;5.90;99.90;;;;;;4882414;29;20052;-84
2023/03/16 10:02:39;;;;;;;5.18;3.17;;;5.90;99.90;;;;;;4871440;29;20077;-84
2023/03/16 10:05:11;;;;;;;7.05;3.80;;;5.90;99.90;;;;;;4860466;29;20044;-82
2023/03/16 10:08:01;;;;;;;7.32;3.60;;;6.00;99.90;;;;;;4883874;29;20041;-84
2023/03/16 10:11:08;;;;;;;5.82;3.50;;;6.20;99.90;;;;;;4875865;29;20097;-83
2023/03/16 10:14:16;;;;;;;7.28;3.83;;;6.10;99.90;;;;;;4847226;29;20517;-83
2023/03/16 10:16:50;;;;;;;6.20;3.40;;;6.10;99.90;;;;;;4844465;29;20160;-83
2023/03/16 10:19:44;;;;;;;5.65;3.22;;;6.30;99.90;;;;;;4862111;29;20392;-82
2023/03/16 10:22:26;;;;;;;10.13;3.90;;;6.30;99.90;;;;;;4845172;29;20056;-82
2023/03/16 10:24:58;;;;;;;7.05;3.70;;;6.30;99.90;;;;;;4852871;29;20052;-82
2023/03/16 10:27:30;;;;;;;6.10;3.30;;;6.20;99.90;;;;;;4862590;29;20088;-83
2023/03/16 10:29:56;;;;;;;8.75;3.70;;;6.40;99.90;;;;;;4879462;29;20060;-83
2023/03/16 10:32:27;;;;;;;5.43;3.40;;;6.40;99.90;;;;;;4852234;29;20061;-82
2023/03/16 10:35:19;;;;;;;6.00;3.17;;;6.40;99.90;;;;;;4847742;29;20056;-79
2023/03/16 10:37:47;;;;;;;6.82;3.28;;;6.50;99.90;;;;;;4861932;29;20045;-81
2023/03/16 10:40:16;;;;;;;4.32;2.90;;;6.50;99.90;;;;;;4833359;29;20498;-81
2023/03/16 10:42:45;;;;;;;7.70;3.90;;;6.60;99.90;;;;;;4856733;29;20809;-87
2023/03/16 10:45:29;;;;;;;5.38;3.42;;;6.60;99.90;;;;;;4855196;29;20087;-81
2023/03/16 10:48:27;;;;;;;5.80;3.45;;;6.70;99.90;;;;;;4854024;29;20049;-82
2023/03/16 10:50:56;;;;;;;6.13;3.30;;;6.70;99.90;;;;;;4863580;29;20053;-81
2023/03/16 10:53:25;;;;;;;5.40;2.75;;;6.90;99.90;;;;;;4850720;29;20573;-83
2023/03/16 10:56:00;;;;;;;7.35;3.45;;;6.90;99.90;;;;;;4856192;29;20048;-82
2023/03/16 10:58:32;;;;;;;4.68;3.28;;;7.00;99.90;;;;;;4852416;29;20160;-83
2023/03/16 11:00:59;;;;;;;4.65;3.20;;;7.10;99.90;;;;;;4849422;29;20061;-81
2023/03/16 11:03:33;;;;;;;5.28;3.60;;;7.20;99.90;;;;;;4873026;29;20069;-81
2023/03/16 11:06:03;;;;;;;8.70;4.20;;;7.30;99.90;;;;;;4863844;29;20053;-84
2023/03/16 11:08:47;;;;;;;6.60;3.67;;;7.40;99.90;;;;;;4862047;29;21076;-79
2023/03/16 11:11:17;;;;;;;6.07;4.40;;;7.60;99.90;;;;;;4858731;29;20049;-83
2023/03/16 11:13:46;;;;;;;9.40;4.00;;;7.70;99.90;;;;;;4862975;29;20048;-81
2023/03/16 11:16:35;;;;;;;5.72;3.60;;;7.90;99.90;;;;;;4864394;29;20112;-81
2023/03/16 11:19:20;;;;;;;7.43;3.17;;;8.10;99.90;;;;;;4860799;29;20045;-82
2023/03/16 11:22:02;;;;;;;5.93;3.38;;;8.40;99.90;;;;;;4853408;29;20386;-80
2023/03/16 11:24:50;;;;;;;8.77;3.92;;;8.50;99.90;;;;;;4847923;29;20089;-81
2023/03/16 11:28:02;;;;;;;5.70;4.00;;;8.70;99.90;;;;;;4847894;29;20057;-82
2023/03/16 11:30:54;;;;;;;5.95;3.45;;;8.80;99.90;;;;;;4801472;29;20082;-83
2023/03/16 11:33:20;;;;;;;7.38;3.30;;;8.90;99.90;;;;;;4863492;29;20053;-83
2023/03/16 11:35:59;;;;;;;8.38;3.25;;;8.80;99.90;;;;;;4854806;29;20053;-85
2023/03/16 11:38:51;;;;;;;6.03;3.08;;;8.80;99.90;;;;;;4864299;29;20053;-83
2023/03/16 11:41:27;;;;;;;5.60;3.50;;;8.70;99.90;;;;;;4860461;29;20060;-83
2023/03/16 11:44:17;;;;;;;6.65;3.40;;;8.70;99.90;;;;;;4852387;29;20087;-85
2023/03/16 11:47:20;;;;;;;7.40;3.33;;;8.60;99.90;;;;;;4860839;29;20059;-84
2023/03/16 11:50:14;;;;;;;5.70;3.35;;;8.60;99.90;;;;;;4846613;29;20046;-84
2023/03/16 11:52:43;;;;;;;5.40;3.20;;;8.60;99.90;;;;;;4845350;29;20057;-83
2023/03/16 11:55:15;;;;;;;5.18;3.08;;;8.60;99.90;;;;;;4851309;29;20065;-84
2023/03/16 11:57:59;;;;;;;4.13;2.80;;;8.60;99.90;;;;;;4857430;29;20140;-82
2023/03/16 12:00:27;;;;;;;6.93;3.50;;;8.60;99.90;;;;;;4847722;29;20460;-82
2023/03/16 12:03:01;;;;;;;4.90;2.70;;;8.60;99.90;;;;;;4848736;29;20490;-83
2023/03/16 12:06:06;;;;;;;4.75;2.80;;;8.60;99.90;;;;;;4857427;29;20071;-83
2023/03/16 12:08:58;;;;;;;6.32;2.80;;;8.50;99.90;;;;;;4849881;29;20512;-82
2023/03/16 12:11:34;;;;;;;5.15;3.00;;;8.50;99.90;;;;;;4849786;29;20140;-83
2023/03/16 12:14:14;;;;;;;4.53;3.08;;;7.60;99.90;;;;;;4853726;29;20060;-84
2023/03/16 12:17:01;;;;;;;6.32;3.05;;;8.50;99.90;;;;;;4857742;29;20088;-82
2023/03/16 12:19:55;;;;;;;5.55;3.28;;;8.50;99.90;;;;;;4864351;29;20057;-83
2023/03/16 12:22:44;;;;;;;5.78;3.15;;;8.50;99.90;;;;;;4865923;29;20059;-82
2023/03/16 12:25:21;;;;;;;7.45;3.42;;;8.50;99.90;;;;;;4858343;29;20144;-82
2023/03/16 12:27:53;;;;;;;5.13;3.60;;;8.50;99.90;;;;;;4859930;29;20056;-81
2023/03/16 12:30:41;;;;;;;6.15;3.75;;;8.50;99.90;;;;;;4870775;29;20053;-81
2023/03/16 12:33:42;;;;;;;5.45;3.40;;;8.50;99.90;;;;;;4858434;29;20088;-81
2023/03/16 12:36:17;;;;;;;5.47;2.72;;;8.50;99.90;;;;;;4850212;29;20056;-81
2023/03/16 12:38:59;;;;;;;5.70;3.10;;;8.50;99.90;;;;;;4850266;29;20149;-80
2023/03/16 12:41:50;;;;;;;4.82;3.50;;;8.50;99.90;;;;;;4848432;29;20048;-81
2023/03/16 12:44:54;;;;;;;6.22;2.75;;;8.60;99.90;;;;;;4853983;29;20905;-81
2023/03/16 12:47:45;;;;;;;5.05;3.13;;;8.60;99.90;;;;;;4871170;29;20465;-81
2023/03/16 12:50:15;;;;;;;5.47;3.00;;;8.70;99.90;;;;;;4864032;29;20057;-81
2023/03/16 12:52:47;;;;;;;5.75;3.15;;;8.70;99.90;;;;;;4847784;29;20045;-81
2023/03/16 12:55:18;;;;;;;6.25;3.17;;;8.70;99.90;;;;;;4848438;29;20144;-82
2023/03/16 12:57:47;;;;;;;5.22;3.40;;;8.80;99.90;;;;;;4859142;29;20049;-81
2023/03/16 13:00:15;;;;;;;4.30;3.00;;;9.00;99.90;;;;;;4863629;29;20052;-81
2023/03/16 13:02:50;;;;;;;5.55;3.60;;;9.10;99.90;;;;;;4861832;29;20053;-81
2023/03/16 13:05:26;;;;;;;6.05;2.80;;;9.20;99.90;;;;;;4856744;29;20057;-81
2023/03/16 13:08:12;;;;;;;8.23;2.95;;;9.10;99.90;;;;;;4853651;29;20041;-82
2023/03/16 13:10:39;;;;;;;6.45;3.50;;;9.40;99.90;;;;;;4847026;29;20053;-83
2023/03/16 13:13:16;;;;;;;6.82;3.15;;;9.40;99.90;;;;;;4850046;29;20058;-82
2023/03/16 13:15:46;;;;;;;4.10;2.80;;;9.50;99.90;;;;;;4854956;29;20049;-83
2023/03/16 13:18:15;;;;;;;5.45;3.38;;;9.40;99.90;;;;;;4853170;29;20063;-90